createdAt,value
2022-08-14T00:01:10.434Z,99410.22
2022-08-14T00:04:00.201Z,99393.09
2022-08-14T00:06:49.771Z,99395.88
2022-08-14T00:09:55.290Z,99397.69
2022-08-14T00:12:56.825Z,99385.50
2022-08-14T00:15:49.487Z,99384.84
2022-08-14T00:19:06.100Z,99376.28
2022-08-14T00:21:47.126Z,99376.88
2022-08-14T00:24:35.673Z,99365.84
2022-08-14T00:27:24.169Z,99369.47
2022-08-14T00:30:14.158Z,99368.66
2022-08-14T00:33:15.227Z,99362.06
2022-08-14T00:36:35.844Z,99357.13
2022-08-14T00:39:18.039Z,99351.84
2022-08-14T00:42:07.578Z,99351.84
2022-08-14T00:45:13.899Z,99345.25
2022-08-14T00:48:02.951Z,99345.25
2022-08-14T00:50:55.061Z,99341.13
2022-08-14T00:53:44.532Z,99347.53
2022-08-14T00:56:33.664Z,99340.97
2022-08-14T00:59:23.219Z,99345.72
2022-08-14T01:02:13.135Z,99337.47
2022-08-14T01:05:07.532Z,99334.47
2022-08-14T01:07:58.497Z,99336.63
2022-08-14T01:10:53.170Z,99331.00
2022-08-14T01:13:43.103Z,99318.50
2022-08-14T01:16:31.918Z,99327.69
2022-08-14T01:19:38.342Z,99323.38
2022-08-14T01:22:29.535Z,99331.28
2022-08-14T01:25:18.137Z,99319.28
2022-08-14T01:28:06.927Z,99323.72
2022-08-14T01:30:59.881Z,99309.88
2022-08-14T01:35:16.084Z,99308.25
2022-08-14T01:36:59.720Z,99306.88
2022-08-14T01:39:54.455Z,99291.41
2022-08-14T01:42:44.384Z,99291.59
2022-08-14T01:45:40.622Z,99288.28
2022-08-14T01:48:30.381Z,99281.69
2022-08-14T01:51:22.864Z,99288.75
2022-08-14T01:54:14.494Z,99283.97
2022-08-14T01:57:04.580Z,99270.31
2022-08-14T01:59:54.550Z,99262.56
2022-08-14T02:02:46.563Z,99257.78
2022-08-14T02:05:38.323Z,99251.84
2022-08-14T02:08:34.751Z,99252.19
2022-08-14T02:11:25.098Z,99246.41
2022-08-14T02:14:15.160Z,99245.09
2022-08-14T02:17:23.659Z,99241.13
2022-08-14T02:20:12.323Z,99243.56
2022-08-14T02:23:00.983Z,99258.66
2022-08-14T02:25:54.527Z,99250.78
2022-08-14T02:28:58.381Z,99259.63
2022-08-14T02:31:51.406Z,99256.03
2022-08-14T02:34:41.387Z,99259.63
2022-08-14T02:37:37.422Z,99248.97
2022-08-14T02:40:37.950Z,99250.78
2022-08-14T02:43:36.595Z,99231.69
2022-08-14T02:46:32.024Z,99238.25
2022-08-14T02:49:34.006Z,99242.16
2022-08-14T02:52:56.442Z,99234.75
2022-08-14T02:55:32.972Z,99226.63
2022-08-14T02:58:30.693Z,99225.28
2022-08-14T03:01:22.098Z,99234.50
2022-08-14T03:04:12.943Z,99238.09
2022-08-14T03:07:07.600Z,99235.47
2022-08-14T03:10:26.784Z,99230.88
2022-08-14T03:13:06.119Z,99225.28
2022-08-14T03:16:02.500Z,99232.22
2022-08-14T03:19:00.279Z,99239.09
2022-08-14T03:21:52.951Z,99244.69
2022-08-14T03:24:43.314Z,99246.66
2022-08-14T03:27:47.769Z,99243.50
2022-08-14T03:30:39.389Z,99252.22
2022-08-14T03:33:37.839Z,99253.72
2022-08-14T03:37:37.422Z,99255.88
2022-08-14T03:39:38.843Z,99252.91
2022-08-14T03:42:35.844Z,99247.66
2022-08-14T03:45:35.732Z,99253.25
2022-08-14T03:48:30.474Z,99260.25
2022-08-14T03:51:19.995Z,99249.69
2022-08-14T03:54:09.321Z,99249.66
2022-08-14T03:57:04.417Z,99235.44
2022-08-14T03:59:54.284Z,99246.22
2022-08-14T04:02:46.919Z,99241.06
2022-08-14T04:05:42.899Z,99241.97
2022-08-14T04:08:37.631Z,99237.75
2022-08-14T04:11:26.154Z,99238.34
2022-08-14T04:14:15.226Z,99248.63
2022-08-14T04:17:05.846Z,99241.66
2022-08-14T04:20:03.920Z,99235.81
2022-08-14T04:22:53.190Z,99237.97
2022-08-14T04:25:44.266Z,99238.34
2022-08-14T04:29:07.075Z,99229.50
2022-08-14T04:33:01.461Z,99232.66
2022-08-14T04:34:55.119Z,99241.16
2022-08-14T04:38:01.596Z,99230.19
2022-08-14T04:41:14.023Z,99240.84
2022-08-14T04:44:02.589Z,99231.75
2022-08-14T04:47:09.891Z,99229.56
2022-08-14T04:50:03.518Z,99228.75
2022-08-14T04:52:53.966Z,99223.63
2022-08-14T04:55:47.801Z,99231.66
2022-08-14T04:58:40.384Z,99239.66
2022-08-14T05:01:29.517Z,99243.91
2022-08-14T05:04:28.638Z,99239.66
2022-08-14T05:07:18.515Z,99236.22
2022-08-14T05:10:32.374Z,99242.53
2022-08-14T05:13:24.671Z,99243.38
2022-08-14T05:16:20.333Z,99252.88
2022-08-14T05:19:17.738Z,99245.72
2022-08-14T05:22:15.617Z,99244.31
2022-08-14T05:25:08.765Z,99228.69
2022-08-14T05:28:00.481Z,99229.63
2022-08-14T05:30:50.888Z,99226.59
2022-08-14T05:33:40.104Z,99217.91
2022-08-14T05:36:28.853Z,99210.69
2022-08-14T05:39:18.955Z,99207.91
2022-08-14T05:42:09.992Z,99205.03
2022-08-14T05:45:13.535Z,99207.81
2022-08-14T05:48:03.537Z,99213.25
2022-08-14T05:50:52.415Z,99208.84
2022-08-14T05:53:42.237Z,99214.03
2022-08-14T05:59:36.886Z,99209.28
2022-08-14T06:02:27.956Z,99200.03
2022-08-14T06:05:17.647Z,99190.88
2022-08-14T06:08:31.307Z,99183.63
2022-08-14T06:11:30.719Z,99188.91
2022-08-14T06:14:24.113Z,99196.94
2022-08-14T06:17:15.706Z,99196.03
2022-08-14T06:20:14.954Z,99187.53
2022-08-14T06:23:03.476Z,99187.91
2022-08-14T06:25:52.864Z,99188.75
2022-08-14T06:28:45.421Z,99192.94
2022-08-14T06:31:35.690Z,99180.53
2022-08-14T06:35:03.352Z,99183.59
2022-08-14T06:37:41.828Z,99174.44
2022-08-14T06:40:34.425Z,99174.66
2022-08-14T06:43:27.004Z,99175.09
2022-08-14T06:46:23.296Z,99164.31
2022-08-14T06:49:26.457Z,99157.78
2022-08-14T06:52:16.597Z,99155.09
2022-08-14T06:55:05.840Z,99149.38
2022-08-14T06:57:57.753Z,99147.94
2022-08-14T07:01:20.356Z,99135.09
2022-08-14T07:04:39.551Z,99121.34
2022-08-14T07:07:39.341Z,99123.66
2022-08-14T07:10:27.986Z,99118.78
2022-08-14T07:13:18.719Z,99117.53
2022-08-14T07:16:07.915Z,99113.63
2022-08-14T07:18:56.459Z,99130.41
2022-08-14T07:21:44.976Z,99130.00
2022-08-14T07:24:35.133Z,99127.94
2022-08-14T07:27:24.302Z,99122.66
2022-08-14T07:30:33.727Z,99121.47
2022-08-14T07:33:32.923Z,99115.16
2022-08-14T07:36:27.224Z,99122.13
2022-08-14T07:39:18.990Z,99118.03
2022-08-14T07:42:20.030Z,99117.81
2022-08-14T07:45:12.403Z,99127.47
2022-08-14T07:48:00.920Z,99136.25
2022-08-14T07:50:50.813Z,99141.38
2022-08-14T07:53:40.851Z,99141.56
2022-08-14T07:56:47.028Z,99146.47
2022-08-14T07:59:41.218Z,99146.47
2022-08-14T08:02:32.870Z,99149.75
2022-08-14T08:05:24.210Z,99151.41
2022-08-14T08:08:27.190Z,99141.75
2022-08-14T08:11:16.213Z,99145.03
2022-08-14T08:14:10.356Z,99136.22
2022-08-14T08:17:06.826Z,99128.00
2022-08-14T08:19:57.322Z,99132.53
2022-08-14T08:22:47.905Z,99134.34
2022-08-14T08:25:39.645Z,99134.72
2022-08-14T08:28:29.146Z,99121.72
2022-08-14T08:31:17.667Z,99123.69
2022-08-14T08:34:14.307Z,99123.63
2022-08-14T08:37:07.415Z,99127.59
2022-08-14T08:40:03.487Z,99134.75
2022-08-14T08:42:53.294Z,99128.03
2022-08-14T08:45:45.599Z,99126.16
2022-08-14T08:48:53.772Z,99117.56
2022-08-14T08:51:43.658Z,99124.28
2022-08-14T08:54:32.286Z,99116.94
2022-08-14T08:57:21.568Z,99112.72
2022-08-14T09:00:25.905Z,99107.63
2022-08-14T09:03:17.190Z,99104.81
2022-08-14T09:06:09.521Z,99103.50
2022-08-14T09:09:22.764Z,99096.88
2022-08-14T09:12:13.940Z,99098.28
2022-08-14T09:15:04.396Z,99087.97
2022-08-14T09:18:01.035Z,99098.56
2022-08-14T09:20:51.467Z,99087.63
2022-08-14T09:24:26.886Z,99083.66
2022-08-14T09:26:53.281Z,99069.13
2022-08-14T09:29:42.093Z,99073.84
2022-08-14T09:32:59.217Z,99074.44
2022-08-14T09:35:59.291Z,99073.19
2022-08-14T09:38:50.638Z,99055.72
2022-08-14T09:42:20.610Z,99050.81
2022-08-14T09:45:16.692Z,99047.13
2022-08-14T09:48:15.791Z,99033.75
2022-08-14T09:54:17.883Z,99042.34
2022-08-14T09:57:14.001Z,99041.09
2022-08-14T10:00:28.722Z,99036.84
2022-08-14T10:03:28.646Z,99038.16
2022-08-14T10:06:20.189Z,99036.34
2022-08-14T10:09:11.996Z,99025.41
2022-08-14T10:12:06.823Z,99019.16
2022-08-14T10:15:20.987Z,99029.16
2022-08-14T10:18:17.225Z,99044.94
2022-08-14T10:21:09.484Z,99040.69
2022-08-14T10:23:58.268Z,99045.72
2022-08-14T10:27:00.540Z,99041.97
2022-08-14T10:29:51.579Z,99038.50
2022-08-14T10:32:52.260Z,99032.00
2022-08-14T10:35:47.907Z,99018.72
2022-08-14T10:38:37.549Z,99016.75
2022-08-14T10:41:46.617Z,99012.22
2022-08-14T10:44:39.739Z,98996.22
2022-08-14T10:47:41.287Z,98995.97
2022-08-14T10:50:51.389Z,98987.81
2022-08-14T10:53:40.361Z,98993.50
2022-08-14T10:56:35.496Z,98982.63
2022-08-14T10:59:35.463Z,98974.66
2022-08-14T11:02:45.325Z,98965.03
2022-08-14T11:05:43.289Z,98947.44
2022-08-14T11:08:34.338Z,98929.34
2022-08-14T11:11:25.199Z,98922.31
2022-08-14T11:14:22.819Z,98928.63
2022-08-14T11:17:15.481Z,98938.41
2022-08-14T11:20:14.157Z,98922.13
2022-08-14T11:23:07.668Z,98931.22
2022-08-14T11:25:59.775Z,98934.28
2022-08-14T11:28:50.600Z,98928.44
2022-08-14T11:31:39.360Z,98916.41
2022-08-14T11:34:33.761Z,98919.75
2022-08-14T11:37:31.656Z,98918.34
2022-08-14T11:40:30.676Z,98924.25
2022-08-14T11:43:29.291Z,98926.69
2022-08-14T11:46:29.812Z,98919.31
2022-08-14T11:49:34.146Z,98918.53
2022-08-14T11:52:23.509Z,98910.97
2022-08-14T11:55:14.241Z,98911.88
2022-08-14T11:58:04.927Z,98910.63
2022-08-14T12:00:58.761Z,98910.88
2022-08-14T12:03:52.195Z,98903.56
2022-08-14T12:06:49.726Z,98910.88
2022-08-14T12:09:43.044Z,98907.34
2022-08-14T12:12:35.909Z,98913.97
2022-08-14T12:15:33.231Z,98900.13
2022-08-14T12:18:34.444Z,98904.50
2022-08-14T12:21:25.515Z,98890.09
2022-08-14T12:24:36.235Z,98878.97
2022-08-14T12:27:25.266Z,98871.06
2022-08-14T12:30:14.547Z,98871.22
2022-08-14T12:33:25.678Z,98863.81
2022-08-14T12:36:22.039Z,98862.22
2022-08-14T12:39:19.711Z,98862.88
2022-08-14T12:42:11.943Z,98848.06
2022-08-14T12:45:17.417Z,98843.31
2022-08-14T12:48:21.743Z,98838.06
2022-08-14T12:51:21.724Z,98835.22
2022-08-14T12:54:27.721Z,98836.91
2022-08-14T12:57:20.528Z,98820.59
2022-08-14T13:00:23.208Z,98817.09
2022-08-14T13:03:12.371Z,98803.81
2022-08-14T13:06:01.446Z,98801.94
2022-08-14T13:08:53.297Z,98802.81
2022-08-14T13:11:46.444Z,98800.97
2022-08-14T13:14:35.057Z,98798.06
2022-08-14T13:17:24.258Z,98803.09
2022-08-14T13:20:24.406Z,98789.63
2022-08-14T13:23:13.868Z,98795.78
2022-08-14T13:26:05.448Z,98792.25
2022-08-14T13:29:02.577Z,98791.53
2022-08-14T13:31:55.077Z,98772.94
2022-08-14T13:34:45.490Z,98775.75
2022-08-14T13:37:34.991Z,98772.66
2022-08-14T13:40:26.661Z,98771.25
2022-08-14T13:43:16.065Z,98765.72
2022-08-14T13:46:07.144Z,98767.97
2022-08-14T13:49:00.128Z,98750.84
2022-08-14T13:51:50.421Z,98746.69
2022-08-14T13:54:42.146Z,98742.41
2022-08-14T13:57:30.719Z,98739.34
2022-08-14T14:00:21.773Z,98741.94
2022-08-14T14:03:23.739Z,98731.59
2022-08-14T14:06:12.218Z,98729.44
2022-08-14T14:09:01.758Z,98731.63
2022-08-14T14:11:52.807Z,98733.16
2022-08-14T14:14:51.278Z,98717.94
2022-08-14T14:17:44.044Z,98720.97
2022-08-14T14:20:36.343Z,98721.34
2022-08-14T14:23:27.585Z,98714.41
2022-08-14T14:26:24.167Z,98718.72
2022-08-14T14:29:13.983Z,98721.63
2022-08-14T14:32:02.720Z,98714.81
2022-08-14T14:34:51.739Z,98713.03
2022-08-14T14:37:43.521Z,98708.72
2022-08-14T14:40:54.525Z,98701.31
2022-08-14T14:43:44.901Z,98695.47
2022-08-14T14:46:36.348Z,98696.06
2022-08-14T14:49:41.780Z,98689.59
2022-08-14T14:52:37.017Z,98694.34
2022-08-14T14:55:29.370Z,98697.50
2022-08-14T14:58:38.293Z,98690.59
2022-08-14T15:01:28.008Z,98689.69
2022-08-14T15:04:20.591Z,98683.34
2022-08-14T15:07:09.700Z,98682.78
2022-08-14T15:10:01.252Z,98686.91
2022-08-14T15:12:55.879Z,98687.53
2022-08-14T15:15:52.787Z,98672.13
2022-08-14T15:18:46.880Z,98671.47
2022-08-14T15:21:37.962Z,98668.97
2022-08-14T15:24:27.436Z,98670.81
2022-08-14T15:27:15.974Z,98672.41
2022-08-14T15:30:23.592Z,98671.59
2022-08-14T15:33:14.249Z,98674.59
2022-08-14T15:36:04.389Z,98670.59
2022-08-14T15:39:13.022Z,98661.41
2022-08-14T15:42:04.271Z,98666.34
2022-08-14T15:45:03.602Z,98667.28
2022-08-14T15:47:53.480Z,98667.25
2022-08-14T15:50:43.277Z,98666.22
2022-08-14T15:53:32.216Z,98666.31
2022-08-14T15:56:42.451Z,98661.56
2022-08-14T15:59:53.960Z,98663.16
2022-08-14T16:02:41.831Z,98665.22
2022-08-14T16:05:38.565Z,98664.84
2022-08-14T16:08:30.115Z,98660.66
2022-08-14T16:11:20.003Z,98667.47
2022-08-14T16:14:08.558Z,98662.66
2022-08-14T16:17:00.303Z,98653.44
2022-08-14T16:19:49.273Z,98652.47
2022-08-14T16:22:59.501Z,98656.16
2022-08-14T16:25:52.756Z,98664.66
2022-08-14T16:28:41.729Z,98659.81
2022-08-14T16:31:36.024Z,98655.41
2022-08-14T16:34:46.057Z,98658.25
2022-08-14T16:37:35.235Z,98656.16
2022-08-14T16:43:15.367Z,98652.16
2022-08-14T16:46:06.382Z,98647.91
2022-08-14T16:48:58.417Z,98642.13
2022-08-14T16:51:52.661Z,98639.06
2022-08-14T16:54:44.534Z,98636.06
2022-08-14T16:57:35.256Z,98641.97
2022-08-14T17:00:32.912Z,98632.81
2022-08-14T17:03:21.735Z,98624.44
2022-08-14T17:06:30.531Z,98629.00
2022-08-14T17:09:35.350Z,98631.59
2022-08-14T17:12:35.164Z,98623.94
2022-08-14T17:16:26.093Z,98638.22
2022-08-14T17:19:17.736Z,98638.63
2022-08-14T17:22:08.221Z,98634.28
2022-08-14T17:25:03.707Z,98627.91
2022-08-14T17:28:37.025Z,98628.06
2022-08-14T17:31:19.924Z,98630.19
2022-08-14T17:34:10.248Z,98622.63
2022-08-14T17:37:06.972Z,98621.00
2022-08-14T17:40:15.331Z,98630.56
2022-08-14T17:43:04.676Z,98626.34
2022-08-14T17:45:53.498Z,98625.25
2022-08-14T17:49:13.730Z,98635.81
2022-08-14T17:52:07.585Z,98634.97
2022-08-14T17:55:05.561Z,98630.53
2022-08-14T17:57:54.953Z,98629.34
2022-08-14T18:00:45.125Z,98639.69
2022-08-14T18:03:50.292Z,98642.53
2022-08-14T18:06:58.878Z,98642.13
2022-08-14T18:09:57.528Z,98644.66
2022-08-14T18:12:47.644Z,98634.19
2022-08-14T18:15:37.393Z,98644.88
2022-08-14T18:18:26.023Z,98645.38
2022-08-14T18:21:42.449Z,98644.22
2022-08-14T18:24:31.753Z,98643.06
2022-08-14T18:27:24.769Z,98644.56
2022-08-14T18:30:31.815Z,98648.81
2022-08-14T18:33:23.325Z,98648.84
2022-08-14T18:36:47.719Z,98654.78
2022-08-14T18:39:26.485Z,98650.53
2022-08-14T18:42:46.566Z,98655.25
2022-08-14T18:45:42.989Z,98657.09
2022-08-14T18:48:50.141Z,98655.44
2022-08-14T18:51:45.893Z,98660.34
2022-08-14T18:54:37.999Z,98657.47
2022-08-14T18:57:35.391Z,98667.81
2022-08-14T19:00:55.926Z,98672.47
2022-08-14T19:03:47.270Z,98669.97
2022-08-14T19:06:56.671Z,98676.25
2022-08-14T19:09:57.914Z,98672.84
2022-08-14T19:13:03.011Z,98676.03
2022-08-14T19:16:05.483Z,98671.44
2022-08-14T19:19:00.223Z,98681.06
2022-08-14T19:21:57.136Z,98673.88
2022-08-14T19:24:45.646Z,98680.53
2022-08-14T19:27:41.104Z,98679.56
2022-08-14T19:30:35.946Z,98686.22
2022-08-14T19:33:52.589Z,98674.47
2022-08-14T19:37:04.607Z,98685.56
2022-08-14T19:39:55.299Z,98681.97
2022-08-14T19:42:46.632Z,98684.72
2022-08-14T19:45:36.007Z,98678.94
2022-08-14T19:48:25.368Z,98687.97
2022-08-14T19:51:15.776Z,98693.97
2022-08-14T19:54:13.121Z,98689.59
2022-08-14T19:57:02.130Z,98697.44
2022-08-14T19:59:57.624Z,98691.44
2022-08-14T20:02:48.899Z,98696.84
2022-08-14T20:05:45.544Z,98700.03
2022-08-14T20:10:59.816Z,98695.50
2022-08-14T20:12:01.812Z,98705.22
2022-08-14T20:14:53.103Z,98701.91
2022-08-14T20:17:42.038Z,98701.91
2022-08-14T20:20:32.754Z,98698.72
2022-08-14T20:23:21.653Z,98698.72
2022-08-14T20:26:30.937Z,98698.06
2022-08-14T20:29:31.238Z,98710.38
2022-08-14T20:32:33.201Z,98722.94
2022-08-14T20:35:35.156Z,98718.94
2022-08-14T20:38:32.602Z,98723.81
2022-08-14T20:41:23.590Z,98732.38
2022-08-14T20:44:29.479Z,98734.38
2022-08-14T20:47:18.779Z,98736.59
2022-08-14T20:50:20.189Z,98728.28
2022-08-14T20:53:33.369Z,98723.66
2022-08-14T20:56:28.421Z,98717.75
2022-08-14T20:59:20.132Z,98718.13
2022-08-14T21:02:29.584Z,98713.75
2022-08-14T21:05:21.169Z,98717.19
2022-08-14T21:08:22.138Z,98721.88
2022-08-14T21:11:18.104Z,98724.31
2022-08-14T21:14:25.056Z,98716.22
2022-08-14T21:17:15.120Z,98717.66
2022-08-14T21:20:25.784Z,98717.03
2022-08-14T21:23:17.369Z,98721.03
2022-08-14T21:26:07.291Z,98718.13
2022-08-14T21:28:57.856Z,98717.66
2022-08-14T21:31:55.353Z,98714.94
2022-08-14T21:34:54.970Z,98719.31
2022-08-14T21:37:48.052Z,98709.94
2022-08-14T21:40:41.914Z,98725.06
2022-08-14T21:43:34.488Z,98724.50
2022-08-14T21:46:29.132Z,98737.31
2022-08-14T21:49:20.987Z,98730.41
2022-08-14T21:52:52.167Z,98735.88
2022-08-14T21:55:23.920Z,98734.03
2022-08-14T21:58:53.332Z,98738.97
2022-08-14T22:01:21.516Z,98732.69
2022-08-14T22:04:33.441Z,98728.22
2022-08-14T22:07:21.189Z,98733.31
2022-08-14T22:10:24.283Z,98734.97
2022-08-14T22:13:14.662Z,98736.22
2022-08-14T22:16:05.717Z,98731.56
2022-08-14T22:19:16.882Z,98726.13
2022-08-14T22:22:07.578Z,98733.31
2022-08-14T22:25:01.238Z,98736.59
2022-08-14T22:27:55.517Z,98736.38
2022-08-14T22:30:47.123Z,98741.88
2022-08-14T22:33:43.321Z,98738.22
2022-08-14T22:36:50.237Z,98735.16
2022-08-14T22:39:39.973Z,98734.84
2022-08-14T22:43:00.226Z,98726.94
2022-08-14T22:45:55.820Z,98723.31
2022-08-14T22:48:46.500Z,98724.31
2022-08-14T22:51:40.838Z,98726.31
2022-08-14T22:54:52.961Z,98726.31
2022-08-14T22:57:43.451Z,98725.66
2022-08-14T23:00:32.348Z,98729.31
2022-08-14T23:03:22.722Z,98725.56
2022-08-14T23:07:04.503Z,98725.56
2022-08-14T23:09:35.114Z,98721.47
2022-08-14T23:12:37.116Z,98729.78
2022-08-14T23:15:30.234Z,98726.31
2022-08-14T23:18:22.443Z,98725.13
2022-08-14T23:21:13.438Z,98726.84
2022-08-14T23:24:03.095Z,98728.94
2022-08-14T23:26:53.692Z,98734.69
2022-08-14T23:29:42.448Z,98739.22
2022-08-14T23:32:31.889Z,98731.94
2022-08-14T23:35:25.898Z,98729.56
2022-08-14T23:38:30.633Z,98728.84
2022-08-14T23:41:19.833Z,98734.03
2022-08-14T23:44:08.973Z,98736.56
2022-08-14T23:50:00.678Z,98732.25
2022-08-14T23:53:06.693Z,98731.91
2022-08-14T23:55:58.985Z,98731.69
2022-08-14T23:58:52.684Z,98720.78
